sensor_id;sensor_type;location;lat;lon;timestamp;P1;durP1;ratioP1;P2;durP2;ratioP2
51288;SDS011;37372;52.294;5.152;2023-08-08T00:02:23;20.85;;;8.90;;
51288;SDS011;37372;52.294;5.152;2023-08-08T00:04:50;20.10;;;9.00;;
51288;SDS011;37372;52.294;5.152;2023-08-08T00:07:26;19.73;;;8.80;;
51288;SDS011;37372;52.294;5.152;2023-08-08T00:09:55;15.00;;;7.95;;
51288;SDS011;37372;52.294;5.152;2023-08-08T00:12:26;20.48;;;9.10;;
51288;SDS011;37372;52.294;5.152;2023-08-08T00:14:53;13.15;;;7.25;;
51288;SDS011;37372;52.294;5.152;2023-08-08T00:17:28;17.77;;;8.43;;
51288;SDS011;37372;52.294;5.152;2023-08-08T00:19:56;15.27;;;8.73;;
51288;SDS011;37372;52.294;5.152;2023-08-08T00:22:28;16.13;;;8.00;;
51288;SDS011;37372;52.294;5.152;2023-08-08T00:24:55;26.45;;;9.48;;
51288;SDS011;37372;52.294;5.152;2023-08-08T00:27:30;18.15;;;9.20;;
51288;SDS011;37372;52.294;5.152;2023-08-08T00:29:56;22.20;;;7.28;;
51288;SDS011;37372;52.294;5.152;2023-08-08T00:32:29;13.88;;;8.73;;
51288;SDS011;37372;52.294;5.152;2023-08-08T00:34:55;23.55;;;8.40;;
51288;SDS011;37372;52.294;5.152;2023-08-08T00:37:30;19.73;;;8.38;;
51288;SDS011;37372;52.294;5.152;2023-08-08T00:39:59;17.92;;;9.20;;
51288;SDS011;37372;52.294;5.152;2023-08-08T00:42:32;18.83;;;8.82;;
51288;SDS011;37372;52.294;5.152;2023-08-08T00:47:32;15.25;;;7.82;;
51288;SDS011;37372;52.294;5.152;2023-08-08T00:50:06;24.77;;;9.35;;
51288;SDS011;37372;52.294;5.152;2023-08-08T00:52:34;19.80;;;8.80;;
51288;SDS011;37372;52.294;5.152;2023-08-08T00:55:00;19.83;;;8.15;;
51288;SDS011;37372;52.294;5.152;2023-08-08T00:57:34;21.05;;;9.52;;
51288;SDS011;37372;52.294;5.152;2023-08-08T01:00:05;21.42;;;9.35;;
51288;SDS011;37372;52.294;5.152;2023-08-08T01:02:36;17.80;;;7.78;;
51288;SDS011;37372;52.294;5.152;2023-08-08T01:05:03;16.10;;;7.65;;
51288;SDS011;37372;52.294;5.152;2023-08-08T01:10:26;23.75;;;7.70;;
51288;SDS011;37372;52.294;5.152;2023-08-08T01:13:02;18.13;;;8.52;;
51288;SDS011;37372;52.294;5.152;2023-08-08T01:15:50;19.42;;;8.32;;
51288;SDS011;37372;52.294;5.152;2023-08-08T01:18:18;13.18;;;7.15;;
51288;SDS011;37372;52.294;5.152;2023-08-08T01:20:45;17.30;;;8.15;;
51288;SDS011;37372;52.294;5.152;2023-08-08T01:25:44;22.13;;;7.88;;
51288;SDS011;37372;52.294;5.152;2023-08-08T01:28:12;18.85;;;7.50;;
51288;SDS011;37372;52.294;5.152;2023-08-08T01:30:39;13.80;;;6.88;;
51288;SDS011;37372;52.294;5.152;2023-08-08T01:33:04;17.05;;;7.22;;
51288;SDS011;37372;52.294;5.152;2023-08-08T01:35:32;15.93;;;7.57;;
51288;SDS011;37372;52.294;5.152;2023-08-08T01:38:11;14.65;;;7.28;;
51288;SDS011;37372;52.294;5.152;2023-08-08T01:40:39;16.90;;;7.05;;
51288;SDS011;37372;52.294;5.152;2023-08-08T01:43:08;13.02;;;6.18;;
51288;SDS011;37372;52.294;5.152;2023-08-08T01:45:36;13.07;;;5.63;;
51288;SDS011;37372;52.294;5.152;2023-08-08T01:48:08;15.40;;;5.70;;
51288;SDS011;37372;52.294;5.152;2023-08-08T01:50:35;12.68;;;5.10;;
51288;SDS011;37372;52.294;5.152;2023-08-08T01:53:02;9.23;;;5.22;;
51288;SDS011;37372;52.294;5.152;2023-08-08T01:55:29;13.80;;;5.03;;
51288;SDS011;37372;52.294;5.152;2023-08-08T01:57:57;14.43;;;6.38;;
51288;SDS011;37372;52.294;5.152;2023-08-08T02:00:24;15.98;;;5.20;;
51288;SDS011;37372;52.294;5.152;2023-08-08T02:02:50;12.32;;;4.80;;
51288;SDS011;37372;52.294;5.152;2023-08-08T02:05:16;10.55;;;4.38;;
51288;SDS011;37372;52.294;5.152;2023-08-08T02:07:56;11.93;;;4.97;;
51288;SDS011;37372;52.294;5.152;2023-08-08T02:10:25;14.80;;;4.72;;
51288;SDS011;37372;52.294;5.152;2023-08-08T02:12:56;11.98;;;4.00;;
51288;SDS011;37372;52.294;5.152;2023-08-08T02:15:22;8.13;;;4.10;;
51288;SDS011;37372;52.294;5.152;2023-08-08T02:17:59;14.13;;;4.72;;
51288;SDS011;37372;52.294;5.152;2023-08-08T02:20:31;9.10;;;3.88;;
51288;SDS011;37372;52.294;5.152;2023-08-08T02:22:56;7.90;;;3.70;;
51288;SDS011;37372;52.294;5.152;2023-08-08T02:25:22;11.30;;;3.72;;
51288;SDS011;37372;52.294;5.152;2023-08-08T02:27:58;12.45;;;4.20;;
51288;SDS011;37372;52.294;5.152;2023-08-08T02:30:25;9.65;;;3.92;;
51288;SDS011;37372;52.294;5.152;2023-08-08T02:32:53;10.23;;;4.03;;
51288;SDS011;37372;52.294;5.152;2023-08-08T02:35:19;5.68;;;3.75;;
51288;SDS011;37372;52.294;5.152;2023-08-08T02:40:34;10.93;;;4.00;;
51288;SDS011;37372;52.294;5.152;2023-08-08T02:43:01;10.82;;;3.90;;
51288;SDS011;37372;52.294;5.152;2023-08-08T02:45:27;5.47;;;3.65;;
51288;SDS011;37372;52.294;5.152;2023-08-08T02:48:01;10.45;;;3.78;;
51288;SDS011;37372;52.294;5.152;2023-08-08T02:50:29;9.60;;;4.07;;
51288;SDS011;37372;52.294;5.152;2023-08-08T02:53:02;9.15;;;3.55;;
51288;SDS011;37372;52.294;5.152;2023-08-08T02:55:28;5.75;;;3.33;;
51288;SDS011;37372;52.294;5.152;2023-08-08T02:58:05;7.10;;;3.20;;
51288;SDS011;37372;52.294;5.152;2023-08-08T03:00:32;9.32;;;3.55;;
51288;SDS011;37372;52.294;5.152;2023-08-08T03:03:07;7.65;;;3.45;;
51288;SDS011;37372;52.294;5.152;2023-08-08T03:05:33;10.02;;;3.97;;
51288;SDS011;37372;52.294;5.152;2023-08-08T03:08:03;7.45;;;3.05;;
51288;SDS011;37372;52.294;5.152;2023-08-08T03:10:30;12.00;;;3.42;;
51288;SDS011;37372;52.294;5.152;2023-08-08T03:12:56;9.02;;;3.50;;
51288;SDS011;37372;52.294;5.152;2023-08-08T03:15:22;9.35;;;2.75;;
51288;SDS011;37372;52.294;5.152;2023-08-08T03:17:58;5.45;;;2.25;;
51288;SDS011;37372;52.294;5.152;2023-08-08T03:20:30;9.43;;;3.42;;
51288;SDS011;37372;52.294;5.152;2023-08-08T03:23:03;8.27;;;2.58;;
51288;SDS011;37372;52.294;5.152;2023-08-08T03:25:30;9.20;;;2.47;;
51288;SDS011;37372;52.294;5.152;2023-08-08T03:28:04;6.07;;;2.25;;
51288;SDS011;37372;52.294;5.152;2023-08-08T03:30:30;8.45;;;2.80;;
51288;SDS011;37372;52.294;5.152;2023-08-08T03:35:49;7.18;;;2.60;;
51288;SDS011;37372;52.294;5.152;2023-08-08T03:38:14;9.48;;;2.65;;
51288;SDS011;37372;52.294;5.152;2023-08-08T03:40:40;5.28;;;2.60;;
51288;SDS011;37372;52.294;5.152;2023-08-08T03:43:05;5.13;;;2.63;;
51288;SDS011;37372;52.294;5.152;2023-08-08T03:45:31;5.80;;;2.50;;
51288;SDS011;37372;52.294;5.152;2023-08-08T03:48:03;7.40;;;3.22;;
51288;SDS011;37372;52.294;5.152;2023-08-08T03:50:38;9.30;;;2.47;;
51288;SDS011;37372;52.294;5.152;2023-08-08T03:53:09;8.68;;;2.70;;
51288;SDS011;37372;52.294;5.152;2023-08-08T03:55:36;10.90;;;2.38;;
51288;SDS011;37372;52.294;5.152;2023-08-08T03:58:10;8.05;;;2.63;;
51288;SDS011;37372;52.294;5.152;2023-08-08T04:00:37;9.80;;;2.22;;
51288;SDS011;37372;52.294;5.152;2023-08-08T04:03:08;7.32;;;2.38;;
51288;SDS011;37372;52.294;5.152;2023-08-08T04:05:34;6.95;;;2.60;;
51288;SDS011;37372;52.294;5.152;2023-08-08T04:08:05;6.65;;;2.20;;
51288;SDS011;37372;52.294;5.152;2023-08-08T04:10:34;8.90;;;2.65;;
51288;SDS011;37372;52.294;5.152;2023-08-08T04:13:12;7.53;;;1.95;;
51288;SDS011;37372;52.294;5.152;2023-08-08T04:15:38;10.43;;;2.15;;
51288;SDS011;37372;52.294;5.152;2023-08-08T04:18:12;5.22;;;2.50;;
51288;SDS011;37372;52.294;5.152;2023-08-08T04:20:41;5.57;;;2.80;;
51288;SDS011;37372;52.294;5.152;2023-08-08T04:23:13;8.15;;;2.50;;
51288;SDS011;37372;52.294;5.152;2023-08-08T04:25:38;6.88;;;2.40;;
51288;SDS011;37372;52.294;5.152;2023-08-08T04:28:13;8.70;;;2.17;;
51288;SDS011;37372;52.294;5.152;2023-08-08T04:30:43;6.13;;;2.67;;
51288;SDS011;37372;52.294;5.152;2023-08-08T04:33:16;8.05;;;2.50;;
51288;SDS011;37372;52.294;5.152;2023-08-08T04:35:42;8.68;;;2.15;;
51288;SDS011;37372;52.294;5.152;2023-08-08T04:38:20;6.60;;;2.03;;
51288;SDS011;37372;52.294;5.152;2023-08-08T04:40:48;5.13;;;2.38;;
51288;SDS011;37372;52.294;5.152;2023-08-08T04:43:20;6.28;;;2.17;;
51288;SDS011;37372;52.294;5.152;2023-08-08T04:45:46;10.50;;;2.85;;
51288;SDS011;37372;52.294;5.152;2023-08-08T04:48:22;12.45;;;3.22;;
51288;SDS011;37372;52.294;5.152;2023-08-08T04:50:50;5.13;;;2.47;;
51288;SDS011;37372;52.294;5.152;2023-08-08T04:53:22;4.63;;;2.00;;
51288;SDS011;37372;52.294;5.152;2023-08-08T04:55:50;6.38;;;2.00;;
51288;SDS011;37372;52.294;5.152;2023-08-08T04:58:25;8.27;;;1.95;;
51288;SDS011;37372;52.294;5.152;2023-08-08T05:00:53;4.95;;;1.63;;
51288;SDS011;37372;52.294;5.152;2023-08-08T05:03:27;6.05;;;1.67;;
51288;SDS011;37372;52.294;5.152;2023-08-08T05:05:52;10.07;;;2.22;;
51288;SDS011;37372;52.294;5.152;2023-08-08T05:08:28;4.55;;;1.58;;
51288;SDS011;37372;52.294;5.152;2023-08-08T05:10:54;8.90;;;2.28;;
51288;SDS011;37372;52.294;5.152;2023-08-08T05:13:24;7.43;;;1.80;;
51288;SDS011;37372;52.294;5.152;2023-08-08T05:15:52;9.65;;;2.88;;
51288;SDS011;37372;52.294;5.152;2023-08-08T05:18:29;6.43;;;1.75;;
51288;SDS011;37372;52.294;5.152;2023-08-08T05:20:57;6.05;;;1.52;;
51288;SDS011;37372;52.294;5.152;2023-08-08T05:23:26;6.82;;;1.55;;
51288;SDS011;37372;52.294;5.152;2023-08-08T05:25:53;7.35;;;1.80;;
51288;SDS011;37372;52.294;5.152;2023-08-08T05:28:30;4.85;;;1.67;;
51288;SDS011;37372;52.294;5.152;2023-08-08T05:30:58;5.45;;;1.70;;
51288;SDS011;37372;52.294;5.152;2023-08-08T05:33:30;7.15;;;1.75;;
51288;SDS011;37372;52.294;5.152;2023-08-08T05:35:55;6.43;;;1.92;;
51288;SDS011;37372;52.294;5.152;2023-08-08T05:38:31;6.47;;;1.65;;
51288;SDS011;37372;52.294;5.152;2023-08-08T05:40:57;6.47;;;1.80;;
51288;SDS011;37372;52.294;5.152;2023-08-08T05:43:30;8.73;;;2.38;;
51288;SDS011;37372;52.294;5.152;2023-08-08T05:45:57;8.93;;;1.67;;
51288;SDS011;37372;52.294;5.152;2023-08-08T05:48:32;8.00;;;1.90;;
51288;SDS011;37372;52.294;5.152;2023-08-08T05:50:58;4.93;;;1.38;;
51288;SDS011;37372;52.294;5.152;2023-08-08T05:53:25;6.13;;;1.17;;
51288;SDS011;37372;52.294;5.152;2023-08-08T05:55:53;3.80;;;1.42;;
51288;SDS011;37372;52.294;5.152;2023-08-08T05:58:28;6.35;;;1.17;;
51288;SDS011;37372;52.294;5.152;2023-08-08T06:01:05;7.32;;;1.63;;
51288;SDS011;37372;52.294;5.152;2023-08-08T06:03:37;8.05;;;1.52;;
51288;SDS011;37372;52.294;5.152;2023-08-08T06:06:03;5.70;;;1.60;;
51288;SDS011;37372;52.294;5.152;2023-08-08T06:08:34;12.02;;;1.88;;
51288;SDS011;37372;52.294;5.152;2023-08-08T06:11:04;6.07;;;1.55;;
51288;SDS011;37372;52.294;5.152;2023-08-08T06:13:36;4.53;;;1.27;;
51288;SDS011;37372;52.294;5.152;2023-08-08T06:16:02;4.22;;;1.45;;
51288;SDS011;37372;52.294;5.152;2023-08-08T06:18:40;4.43;;;1.27;;
51288;SDS011;37372;52.294;5.152;2023-08-08T06:21:07;6.18;;;1.20;;
51288;SDS011;37372;52.294;5.152;2023-08-08T06:23:41;17.42;;;2.05;;
51288;SDS011;37372;52.294;5.152;2023-08-08T06:26:09;5.93;;;1.52;;
51288;SDS011;37372;52.294;5.152;2023-08-08T06:28:41;4.43;;;1.35;;
51288;SDS011;37372;52.294;5.152;2023-08-08T06:31:09;5.53;;;1.30;;
51288;SDS011;37372;52.294;5.152;2023-08-08T06:33:43;6.55;;;1.40;;
51288;SDS011;37372;52.294;5.152;2023-08-08T06:36:09;7.20;;;1.33;;
51288;SDS011;37372;52.294;5.152;2023-08-08T06:38:39;4.65;;;1.25;;
51288;SDS011;37372;52.294;5.152;2023-08-08T06:41:05;5.05;;;1.20;;
51288;SDS011;37372;52.294;5.152;2023-08-08T06:43:40;7.70;;;1.00;;
51288;SDS011;37372;52.294;5.152;2023-08-08T06:46:07;3.33;;;1.00;;
51288;SDS011;37372;52.294;5.152;2023-08-08T06:48:46;3.97;;;1.00;;
51288;SDS011;37372;52.294;5.152;2023-08-08T06:51:14;4.45;;;0.90;;
51288;SDS011;37372;52.294;5.152;2023-08-08T06:53:45;6.80;;;1.00;;
51288;SDS011;37372;52.294;5.152;2023-08-08T06:56:10;3.67;;;0.90;;
51288;SDS011;37372;52.294;5.152;2023-08-08T06:58:47;8.10;;;1.10;;
51288;SDS011;37372;52.294;5.152;2023-08-08T07:01:15;6.32;;;1.10;;
51288;SDS011;37372;52.294;5.152;2023-08-08T07:03:47;4.38;;;0.70;;
51288;SDS011;37372;52.294;5.152;2023-08-08T07:06:18;3.08;;;0.70;;
51288;SDS011;37372;52.294;5.152;2023-08-08T07:08:46;7.03;;;1.60;;
51288;SDS011;37372;52.294;5.152;2023-08-08T07:11:11;5.10;;;2.35;;
51288;SDS011;37372;52.294;5.152;2023-08-08T07:16:23;5.00;;;1.10;;
51288;SDS011;37372;52.294;5.152;2023-08-08T07:18:53;3.38;;;0.88;;
51288;SDS011;37372;52.294;5.152;2023-08-08T07:21:35;5.80;;;1.33;;
51288;SDS011;37372;52.294;5.152;2023-08-08T07:24:00;4.28;;;0.68;;
51288;SDS011;37372;52.294;5.152;2023-08-08T07:26:31;4.43;;;0.98;;
51288;SDS011;37372;52.294;5.152;2023-08-08T07:28:56;6.22;;;1.52;;
51288;SDS011;37372;52.294;5.152;2023-08-08T07:31:22;8.10;;;1.50;;
51288;SDS011;37372;52.294;5.152;2023-08-08T07:33:58;10.50;;;3.38;;
51288;SDS011;37372;52.294;5.152;2023-08-08T07:36:26;9.02;;;2.38;;
51288;SDS011;37372;52.294;5.152;2023-08-08T07:38:55;3.92;;;1.30;;
51288;SDS011;37372;52.294;5.152;2023-08-08T07:41:34;3.63;;;1.10;;
51288;SDS011;37372;52.294;5.152;2023-08-08T07:44:00;4.82;;;1.10;;
51288;SDS011;37372;52.294;5.152;2023-08-08T07:46:26;7.70;;;1.63;;
51288;SDS011;37372;52.294;5.152;2023-08-08T07:48:56;6.53;;;1.55;;
51288;SDS011;37372;52.294;5.152;2023-08-08T07:51:28;6.75;;;1.15;;
51288;SDS011;37372;52.294;5.152;2023-08-08T07:54:00;3.85;;;0.77;;
51288;SDS011;37372;52.294;5.152;2023-08-08T07:56:26;6.05;;;0.90;;
51288;SDS011;37372;52.294;5.152;2023-08-08T07:59:06;5.43;;;1.33;;
51288;SDS011;37372;52.294;5.152;2023-08-08T08:01:31;4.35;;;1.02;;
51288;SDS011;37372;52.294;5.152;2023-08-08T08:04:01;4.82;;;1.10;;
51288;SDS011;37372;52.294;5.152;2023-08-08T08:06:38;14.32;;;2.33;;
51288;SDS011;37372;52.294;5.152;2023-08-08T08:09:06;4.10;;;0.80;;
51288;SDS011;37372;52.294;5.152;2023-08-08T08:11:33;5.75;;;1.52;;
51288;SDS011;37372;52.294;5.152;2023-08-08T08:14:03;4.30;;;0.70;;
51288;SDS011;37372;52.294;5.152;2023-08-08T08:16:30;6.75;;;1.42;;
51288;SDS011;37372;52.294;5.152;2023-08-08T08:19:03;6.40;;;1.35;;
51288;SDS011;37372;52.294;5.152;2023-08-08T08:21:30;4.20;;;0.68;;
51288;SDS011;37372;52.294;5.152;2023-08-08T08:24:05;6.82;;;0.80;;
51288;SDS011;37372;52.294;5.152;2023-08-08T08:26:33;4.30;;;0.70;;
51288;SDS011;37372;52.294;5.152;2023-08-08T08:29:07;4.15;;;0.70;;
51288;SDS011;37372;52.294;5.152;2023-08-08T08:31:33;3.85;;;0.75;;
51288;SDS011;37372;52.294;5.152;2023-08-08T08:34:05;6.35;;;1.00;;
51288;SDS011;37372;52.294;5.152;2023-08-08T08:36:32;3.60;;;0.90;;
51288;SDS011;37372;52.294;5.152;2023-08-08T08:39:07;8.38;;;2.28;;
51288;SDS011;37372;52.294;5.152;2023-08-08T08:41:33;3.95;;;1.00;;
51288;SDS011;37372;52.294;5.152;2023-08-08T08:44:08;7.82;;;1.13;;
51288;SDS011;37372;52.294;5.152;2023-08-08T08:46:37;8.90;;;1.40;;
51288;SDS011;37372;52.294;5.152;2023-08-08T08:49:07;3.03;;;1.00;;
51288;SDS011;37372;52.294;5.152;2023-08-08T08:52:04;3.22;;;1.02;;
51288;SDS011;37372;52.294;5.152;2023-08-08T08:54:34;4.15;;;1.05;;
51288;SDS011;37372;52.294;5.152;2023-08-08T08:57:00;4.85;;;1.67;;
51288;SDS011;37372;52.294;5.152;2023-08-08T08:59:26;2.75;;;0.75;;
51288;SDS011;37372;52.294;5.152;2023-08-08T09:01:51;4.88;;;0.60;;
51288;SDS011;37372;52.294;5.152;2023-08-08T09:04:23;2.63;;;0.73;;
51288;SDS011;37372;52.294;5.152;2023-08-08T09:06:59;4.65;;;0.75;;
51288;SDS011;37372;52.294;5.152;2023-08-08T09:09:36;1.95;;;0.70;;
51288;SDS011;37372;52.294;5.152;2023-08-08T09:12:04;3.60;;;0.70;;
51288;SDS011;37372;52.294;5.152;2023-08-08T09:14:32;7.05;;;0.80;;
51288;SDS011;37372;52.294;5.152;2023-08-08T09:17:03;2.97;;;0.85;;
51288;SDS011;37372;52.294;5.152;2023-08-08T09:22:10;3.63;;;0.60;;
51288;SDS011;37372;52.294;5.152;2023-08-08T09:24:39;2.75;;;0.80;;
51288;SDS011;37372;52.294;5.152;2023-08-08T09:27:09;2.70;;;0.88;;
51288;SDS011;37372;52.294;5.152;2023-08-08T09:29:34;3.05;;;0.82;;
51288;SDS011;37372;52.294;5.152;2023-08-08T09:32:05;6.28;;;0.88;;
51288;SDS011;37372;52.294;5.152;2023-08-08T09:34:34;3.38;;;1.00;;
51288;SDS011;37372;52.294;5.152;2023-08-08T09:37:00;2.58;;;0.60;;
51288;SDS011;37372;52.294;5.152;2023-08-08T09:39:32;2.38;;;0.55;;
51288;SDS011;37372;52.294;5.152;2023-08-08T09:42:03;5.03;;;1.15;;
51288;SDS011;37372;52.294;5.152;2023-08-08T09:44:29;5.80;;;0.80;;
51288;SDS011;37372;52.294;5.152;2023-08-08T09:47:02;1.42;;;0.70;;
51288;SDS011;37372;52.294;5.152;2023-08-08T09:49:28;4.18;;;0.90;;
51288;SDS011;37372;52.294;5.152;2023-08-08T09:51:58;4.72;;;1.13;;
51288;SDS011;37372;52.294;5.152;2023-08-08T09:54:28;1.60;;;0.70;;
51288;SDS011;37372;52.294;5.152;2023-08-08T09:56:55;3.50;;;0.77;;
51288;SDS011;37372;52.294;5.152;2023-08-08T09:59:26;5.95;;;0.85;;
51288;SDS011;37372;52.294;5.152;2023-08-08T10:01:53;8.52;;;1.00;;
51288;SDS011;37372;52.294;5.152;2023-08-08T10:04:25;3.10;;;1.20;;
51288;SDS011;37372;52.294;5.152;2023-08-08T10:06:52;3.80;;;0.90;;
51288;SDS011;37372;52.294;5.152;2023-08-08T10:09:29;3.80;;;0.70;;
51288;SDS011;37372;52.294;5.152;2023-08-08T10:11:58;2.72;;;0.70;;
51288;SDS011;37372;52.294;5.152;2023-08-08T10:14:36;2.55;;;0.50;;
51288;SDS011;37372;52.294;5.152;2023-08-08T10:17:15;2.42;;;0.50;;
51288;SDS011;37372;52.294;5.152;2023-08-08T10:19:54;1.67;;;0.63;;
51288;SDS011;37372;52.294;5.152;2023-08-08T10:22:21;3.58;;;0.88;;
51288;SDS011;37372;52.294;5.152;2023-08-08T10:24:52;3.47;;;0.80;;
51288;SDS011;37372;52.294;5.152;2023-08-08T10:28:03;5.85;;;1.02;;
51288;SDS011;37372;52.294;5.152;2023-08-08T10:30:09;2.00;;;0.50;;
51288;SDS011;37372;52.294;5.152;2023-08-08T10:32:43;2.28;;;0.57;;
51288;SDS011;37372;52.294;5.152;2023-08-08T10:35:17;2.53;;;0.80;;
51288;SDS011;37372;52.294;5.152;2023-08-08T10:37:53;3.83;;;1.05;;
51288;SDS011;37372;52.294;5.152;2023-08-08T10:40:23;6.90;;;2.72;;
51288;SDS011;37372;52.294;5.152;2023-08-08T10:42:58;3.58;;;1.35;;
51288;SDS011;37372;52.294;5.152;2023-08-08T10:45:28;3.63;;;0.85;;
51288;SDS011;37372;52.294;5.152;2023-08-08T10:47:55;6.00;;;0.95;;
51288;SDS011;37372;52.294;5.152;2023-08-08T10:50:24;3.15;;;0.70;;
51288;SDS011;37372;52.294;5.152;2023-08-08T10:52:55;3.10;;;0.75;;
51288;SDS011;37372;52.294;5.152;2023-08-08T10:58:38;3.05;;;0.82;;
51288;SDS011;37372;52.294;5.152;2023-08-08T11:01:06;2.50;;;0.60;;
51288;SDS011;37372;52.294;5.152;2023-08-08T11:03:35;7.30;;;1.20;;
51288;SDS011;37372;52.294;5.152;2023-08-08T11:06:03;8.75;;;0.90;;
51288;SDS011;37372;52.294;5.152;2023-08-08T11:08:32;2.00;;;0.77;;
51288;SDS011;37372;52.294;5.152;2023-08-08T11:11:02;3.75;;;0.82;;
51288;SDS011;37372;52.294;5.152;2023-08-08T11:13:35;3.85;;;1.20;;
51288;SDS011;37372;52.294;5.152;2023-08-08T11:16:01;7.95;;;1.52;;
51288;SDS011;37372;52.294;5.152;2023-08-08T11:18:27;2.90;;;0.68;;
51288;SDS011;37372;52.294;5.152;2023-08-08T11:20:54;4.65;;;0.82;;
51288;SDS011;37372;52.294;5.152;2023-08-08T11:23:20;1.85;;;0.85;;
51288;SDS011;37372;52.294;5.152;2023-08-08T11:25:47;1.48;;;0.65;;
51288;SDS011;37372;52.294;5.152;2023-08-08T11:28:15;5.63;;;0.95;;
51288;SDS011;37372;52.294;5.152;2023-08-08T11:30:43;3.17;;;0.80;;
51288;SDS011;37372;52.294;5.152;2023-08-08T11:33:14;4.45;;;1.05;;
51288;SDS011;37372;52.294;5.152;2023-08-08T11:35:44;2.92;;;0.80;;
51288;SDS011;37372;52.294;5.152;2023-08-08T11:38:15;5.32;;;0.90;;
51288;SDS011;37372;52.294;5.152;2023-08-08T11:40:42;3.00;;;0.70;;
51288;SDS011;37372;52.294;5.152;2023-08-08T11:43:10;5.50;;;1.23;;
51288;SDS011;37372;52.294;5.152;2023-08-08T11:45:38;2.97;;;0.57;;
51288;SDS011;37372;52.294;5.152;2023-08-08T11:48:03;5.60;;;0.60;;
51288;SDS011;37372;52.294;5.152;2023-08-08T11:53:50;7.20;;;1.27;;
51288;SDS011;37372;52.294;5.152;2023-08-08T11:56:22;3.65;;;1.10;;
51288;SDS011;37372;52.294;5.152;2023-08-08T11:58:50;6.88;;;1.75;;
51288;SDS011;37372;52.294;5.152;2023-08-08T12:01:26;2.97;;;0.80;;
51288;SDS011;37372;52.294;5.152;2023-08-08T12:03:54;4.72;;;0.77;;
51288;SDS011;37372;52.294;5.152;2023-08-08T12:06:19;5.43;;;0.95;;
51288;SDS011;37372;52.294;5.152;2023-08-08T12:08:47;5.25;;;1.40;;
51288;SDS011;37372;52.294;5.152;2023-08-08T12:11:17;3.85;;;1.52;;
51288;SDS011;37372;52.294;5.152;2023-08-08T12:13:45;7.68;;;2.20;;
51288;SDS011;37372;52.294;5.152;2023-08-08T12:16:12;3.95;;;1.00;;
51288;SDS011;37372;52.294;5.152;2023-08-08T12:18:42;5.13;;;0.70;;
51288;SDS011;37372;52.294;5.152;2023-08-08T12:21:08;6.65;;;1.13;;
51288;SDS011;37372;52.294;5.152;2023-08-08T12:23:35;6.15;;;0.68;;
51288;SDS011;37372;52.294;5.152;2023-08-08T12:26:02;5.35;;;1.08;;
51288;SDS011;37372;52.294;5.152;2023-08-08T12:28:34;2.70;;;0.63;;
51288;SDS011;37372;52.294;5.152;2023-08-08T12:31:00;4.85;;;0.73;;
51288;SDS011;37372;52.294;5.152;2023-08-08T12:33:26;3.38;;;0.93;;
51288;SDS011;37372;52.294;5.152;2023-08-08T12:35:52;4.35;;;0.82;;
51288;SDS011;37372;52.294;5.152;2023-08-08T12:38:17;4.18;;;1.45;;
51288;SDS011;37372;52.294;5.152;2023-08-08T12:40:43;3.75;;;0.70;;
51288;SDS011;37372;52.294;5.152;2023-08-08T12:43:17;4.53;;;0.93;;
51288;SDS011;37372;52.294;5.152;2023-08-08T12:45:46;4.35;;;0.70;;
51288;SDS011;37372;52.294;5.152;2023-08-08T12:48:12;4.28;;;1.02;;
51288;SDS011;37372;52.294;5.152;2023-08-08T12:50:39;5.50;;;1.10;;
51288;SDS011;37372;52.294;5.152;2023-08-08T12:53:06;4.25;;;0.80;;
51288;SDS011;37372;52.294;5.152;2023-08-08T12:55:33;1.95;;;0.95;;
51288;SDS011;37372;52.294;5.152;2023-08-08T12:57:58;6.35;;;1.33;;
51288;SDS011;37372;52.294;5.152;2023-08-08T13:00:24;6.38;;;0.75;;
51288;SDS011;37372;52.294;5.152;2023-08-08T13:02:50;3.08;;;1.08;;
51288;SDS011;37372;52.294;5.152;2023-08-08T13:05:16;4.40;;;0.90;;
51288;SDS011;37372;52.294;5.152;2023-08-08T13:07:44;4.95;;;0.95;;
51288;SDS011;37372;52.294;5.152;2023-08-08T13:10:17;3.05;;;0.80;;
51288;SDS011;37372;52.294;5.152;2023-08-08T13:12:45;1.77;;;0.60;;
51288;SDS011;37372;52.294;5.152;2023-08-08T13:15:12;1.63;;;0.50;;
51288;SDS011;37372;52.294;5.152;2023-08-08T13:17:43;5.10;;;0.80;;
51288;SDS011;37372;52.294;5.152;2023-08-08T13:20:10;2.72;;;0.60;;
51288;SDS011;37372;52.294;5.152;2023-08-08T13:22:40;3.15;;;0.68;;
51288;SDS011;37372;52.294;5.152;2023-08-08T13:25:08;5.78;;;1.35;;
51288;SDS011;37372;52.294;5.152;2023-08-08T13:27:34;4.00;;;1.05;;
51288;SDS011;37372;52.294;5.152;2023-08-08T13:30:09;4.57;;;0.90;;
51288;SDS011;37372;52.294;5.152;2023-08-08T13:32:48;7.15;;;1.17;;
51288;SDS011;37372;52.294;5.152;2023-08-08T13:35:13;4.00;;;0.80;;
51288;SDS011;37372;52.294;5.152;2023-08-08T13:37:39;6.32;;;0.80;;
51288;SDS011;37372;52.294;5.152;2023-08-08T13:40:11;5.15;;;0.77;;
51288;SDS011;37372;52.294;5.152;2023-08-08T13:42:39;4.55;;;0.90;;
51288;SDS011;37372;52.294;5.152;2023-08-08T13:45:10;3.10;;;0.80;;
51288;SDS011;37372;52.294;5.152;2023-08-08T13:47:36;3.95;;;1.10;;
51288;SDS011;37372;52.294;5.152;2023-08-08T13:50:16;5.85;;;0.90;;
51288;SDS011;37372;52.294;5.152;2023-08-08T13:52:43;3.47;;;0.70;;
51288;SDS011;37372;52.294;5.152;2023-08-08T13:55:14;4.20;;;0.90;;
51288;SDS011;37372;52.294;5.152;2023-08-08T13:57:43;1.48;;;0.50;;
51288;SDS011;37372;52.294;5.152;2023-08-08T14:02:53;2.42;;;0.63;;
51288;SDS011;37372;52.294;5.152;2023-08-08T14:05:20;6.18;;;0.90;;
51288;SDS011;37372;52.294;5.152;2023-08-08T14:07:45;3.30;;;1.00;;
51288;SDS011;37372;52.294;5.152;2023-08-08T14:10:23;4.05;;;1.27;;
51288;SDS011;37372;52.294;5.152;2023-08-08T14:12:50;2.95;;;0.85;;
51288;SDS011;37372;52.294;5.152;2023-08-08T14:15:16;3.75;;;0.93;;
51288;SDS011;37372;52.294;5.152;2023-08-08T14:17:43;8.20;;;2.72;;
51288;SDS011;37372;52.294;5.152;2023-08-08T14:20:20;5.32;;;1.20;;
51288;SDS011;37372;52.294;5.152;2023-08-08T14:22:50;6.32;;;1.35;;
51288;SDS011;37372;52.294;5.152;2023-08-08T14:25:19;2.03;;;0.60;;
51288;SDS011;37372;52.294;5.152;2023-08-08T14:27:49;4.90;;;1.45;;
51288;SDS011;37372;52.294;5.152;2023-08-08T14:30:19;5.65;;;1.23;;
51288;SDS011;37372;52.294;5.152;2023-08-08T14:32:46;5.18;;;1.48;;
51288;SDS011;37372;52.294;5.152;2023-08-08T14:35:13;6.93;;;1.38;;
51288;SDS011;37372;52.294;5.152;2023-08-08T14:37:47;4.50;;;1.05;;
51288;SDS011;37372;52.294;5.152;2023-08-08T14:40:13;4.15;;;1.20;;
51288;SDS011;37372;52.294;5.152;2023-08-08T14:42:41;3.97;;;1.40;;
51288;SDS011;37372;52.294;5.152;2023-08-08T14:45:27;9.82;;;1.90;;
51288;SDS011;37372;52.294;5.152;2023-08-08T14:47:53;5.03;;;1.10;;
51288;SDS011;37372;52.294;5.152;2023-08-08T14:50:19;5.70;;;1.40;;
51288;SDS011;37372;52.294;5.152;2023-08-08T14:52:50;5.13;;;1.30;;
51288;SDS011;37372;52.294;5.152;2023-08-08T14:55:17;2.58;;;0.85;;
51288;SDS011;37372;52.294;5.152;2023-08-08T14:57:44;9.30;;;2.33;;
51288;SDS011;37372;52.294;5.152;2023-08-08T15:00:28;5.35;;;1.30;;
51288;SDS011;37372;52.294;5.152;2023-08-08T15:02:53;5.68;;;1.48;;
51288;SDS011;37372;52.294;5.152;2023-08-08T15:05:19;5.68;;;1.42;;
51288;SDS011;37372;52.294;5.152;2023-08-08T15:07:51;5.50;;;1.10;;
51288;SDS011;37372;52.294;5.152;2023-08-08T15:10:27;5.35;;;1.48;;
51288;SDS011;37372;52.294;5.152;2023-08-08T15:12:56;2.53;;;0.85;;
51288;SDS011;37372;52.294;5.152;2023-08-08T15:15:27;3.08;;;0.90;;
51288;SDS011;37372;52.294;5.152;2023-08-08T15:17:54;6.90;;;1.38;;
51288;SDS011;37372;52.294;5.152;2023-08-08T15:20:22;4.25;;;1.20;;
51288;SDS011;37372;52.294;5.152;2023-08-08T15:22:52;6.03;;;1.08;;
51288;SDS011;37372;52.294;5.152;2023-08-08T15:25:19;7.35;;;1.65;;
51288;SDS011;37372;52.294;5.152;2023-08-08T15:27:52;4.72;;;1.00;;
51288;SDS011;37372;52.294;5.152;2023-08-08T15:30:23;2.83;;;0.77;;